sensor_id;sensor_type;location;lat;lon;timestamp;temperature;humidity
57753;DHT22;43583;53.132;6.574;2023-08-20T00:00:52;13.90;99.90
57753;DHT22;43583;53.132;6.574;2023-08-20T00:03:17;13.90;99.90
57753;DHT22;43583;53.132;6.574;2023-08-20T00:05:43;13.90;99.90
57753;DHT22;43583;53.132;6.574;2023-08-20T00:08:09;13.90;99.90
57753;DHT22;43583;53.132;6.574;2023-08-20T00:10:34;13.90;99.90
57753;DHT22;43583;53.132;6.574;2023-08-20T00:13:00;13.80;99.90
57753;DHT22;43583;53.132;6.574;2023-08-20T00:15:26;13.80;99.90
57753;DHT22;43583;53.132;6.574;2023-08-20T00:17:54;13.80;99.90
57753;DHT22;43583;53.132;6.574;2023-08-20T00:20:20;13.80;99.90
57753;DHT22;43583;53.132;6.574;2023-08-20T00:22:47;13.70;99.90
57753;DHT22;43583;53.132;6.574;2023-08-20T00:25:14;13.60;99.90
57753;DHT22;43583;53.132;6.574;2023-08-20T00:27:42;13.60;99.90
57753;DHT22;43583;53.132;6.574;2023-08-20T00:30:08;13.60;99.90
57753;DHT22;43583;53.132;6.574;2023-08-20T00:32:35;13.60;99.90
57753;DHT22;43583;53.132;6.574;2023-08-20T00:35:01;13.60;99.90
57753;DHT22;43583;53.132;6.574;2023-08-20T00:37:31;13.60;99.90
57753;DHT22;43583;53.132;6.574;2023-08-20T00:39:57;13.60;99.90
57753;DHT22;43583;53.132;6.574;2023-08-20T00:42:23;13.60;99.90
57753;DHT22;43583;53.132;6.574;2023-08-20T00:44:53;13.60;99.90
57753;DHT22;43583;53.132;6.574;2023-08-20T00:47:19;13.60;99.90
57753;DHT22;43583;53.132;6.574;2023-08-20T00:49:46;13.60;99.90
57753;DHT22;43583;53.132;6.574;2023-08-20T00:52:14;13.50;99.90
57753;DHT22;43583;53.132;6.574;2023-08-20T00:54:40;13.50;99.90
57753;DHT22;43583;53.132;6.574;2023-08-20T00:57:07;13.50;99.90
57753;DHT22;43583;53.132;6.574;2023-08-20T00:59:34;13.50;99.90
57753;DHT22;43583;53.132;6.574;2023-08-20T01:02:00;13.60;99.90
57753;DHT22;43583;53.132;6.574;2023-08-20T01:04:27;13.50;99.90
57753;DHT22;43583;53.132;6.574;2023-08-20T01:10:13;13.40;99.90
57753;DHT22;43583;53.132;6.574;2023-08-20T01:12:41;13.40;99.90
57753;DHT22;43583;53.132;6.574;2023-08-20T01:15:07;13.40;99.90
57753;DHT22;43583;53.132;6.574;2023-08-20T01:17:41;13.40;99.90
57753;DHT22;43583;53.132;6.574;2023-08-20T01:20:09;13.40;99.90
57753;DHT22;43583;53.132;6.574;2023-08-20T01:28:29;13.30;99.90
57753;DHT22;43583;53.132;6.574;2023-08-20T01:30:57;13.30;99.90
57753;DHT22;43583;53.132;6.574;2023-08-20T01:33:23;13.30;99.90
57753;DHT22;43583;53.132;6.574;2023-08-20T01:35:53;13.30;99.90
57753;DHT22;43583;53.132;6.574;2023-08-20T01:38:19;13.30;99.90
57753;DHT22;43583;53.132;6.574;2023-08-20T01:40:45;13.30;99.90
57753;DHT22;43583;53.132;6.574;2023-08-20T01:43:11;13.30;99.90
57753;DHT22;43583;53.132;6.574;2023-08-20T01:45:36;13.30;99.90
57753;DHT22;43583;53.132;6.574;2023-08-20T01:48:02;13.30;99.90
57753;DHT22;43583;53.132;6.574;2023-08-20T01:50:29;13.30;99.90
57753;DHT22;43583;53.132;6.574;2023-08-20T01:52:55;13.30;99.90
57753;DHT22;43583;53.132;6.574;2023-08-20T01:55:20;13.30;99.90
57753;DHT22;43583;53.132;6.574;2023-08-20T01:57:46;13.20;99.90
57753;DHT22;43583;53.132;6.574;2023-08-20T02:00:12;13.30;99.90
57753;DHT22;43583;53.132;6.574;2023-08-20T02:02:38;13.30;99.90
57753;DHT22;43583;53.132;6.574;2023-08-20T02:05:04;13.20;99.90
57753;DHT22;43583;53.132;6.574;2023-08-20T02:07:30;13.20;99.90
57753;DHT22;43583;53.132;6.574;2023-08-20T02:09:55;13.30;99.90
57753;DHT22;43583;53.132;6.574;2023-08-20T02:12:21;13.30;99.90
57753;DHT22;43583;53.132;6.574;2023-08-20T02:14:47;13.20;99.90
57753;DHT22;43583;53.132;6.574;2023-08-20T02:17:13;13.30;99.90
57753;DHT22;43583;53.132;6.574;2023-08-20T02:19:39;13.30;99.90
57753;DHT22;43583;53.132;6.574;2023-08-20T02:22:05;13.30;99.90
57753;DHT22;43583;53.132;6.574;2023-08-20T02:24:31;13.30;99.90
57753;DHT22;43583;53.132;6.574;2023-08-20T02:26:56;13.30;99.90
57753;DHT22;43583;53.132;6.574;2023-08-20T02:29:22;13.30;99.90
57753;DHT22;43583;53.132;6.574;2023-08-20T02:31:48;13.30;99.90
57753;DHT22;43583;53.132;6.574;2023-08-20T02:34:13;13.30;99.90
57753;DHT22;43583;53.132;6.574;2023-08-20T02:36:39;13.30;99.90
57753;DHT22;43583;53.132;6.574;2023-08-20T02:39:05;13.20;99.90
57753;DHT22;43583;53.132;6.574;2023-08-20T02:41:34;13.20;99.90
57753;DHT22;43583;53.132;6.574;2023-08-20T02:44:00;13.20;99.90
57753;DHT22;43583;53.132;6.574;2023-08-20T02:46:25;13.20;99.90
57753;DHT22;43583;53.132;6.574;2023-08-20T02:48:51;13.20;99.90
57753;DHT22;43583;53.132;6.574;2023-08-20T02:51:17;13.20;99.90
57753;DHT22;43583;53.132;6.574;2023-08-20T02:53:42;13.10;99.90
57753;DHT22;43583;53.132;6.574;2023-08-20T02:56:08;13.10;99.90
57753;DHT22;43583;53.132;6.574;2023-08-20T02:58:34;13.20;99.90
57753;DHT22;43583;53.132;6.574;2023-08-20T03:01:00;13.20;99.90
57753;DHT22;43583;53.132;6.574;2023-08-20T03:03:25;13.30;99.90
57753;DHT22;43583;53.132;6.574;2023-08-20T03:05:51;13.20;99.90
57753;DHT22;43583;53.132;6.574;2023-08-20T03:08:17;13.20;99.90
57753;DHT22;43583;53.132;6.574;2023-08-20T03:10:42;13.20;99.90
57753;DHT22;43583;53.132;6.574;2023-08-20T03:13:08;13.20;99.90
57753;DHT22;43583;53.132;6.574;2023-08-20T03:15:33;13.20;99.90
57753;DHT22;43583;53.132;6.574;2023-08-20T03:17:59;13.10;99.90
57753;DHT22;43583;53.132;6.574;2023-08-20T03:20:25;13.20;99.90
57753;DHT22;43583;53.132;6.574;2023-08-20T03:22:51;13.20;99.90
57753;DHT22;43583;53.132;6.574;2023-08-20T03:25:17;13.20;99.90
57753;DHT22;43583;53.132;6.574;2023-08-20T03:27:42;13.10;99.90
57753;DHT22;43583;53.132;6.574;2023-08-20T03:30:08;13.10;99.90
57753;DHT22;43583;53.132;6.574;2023-08-20T03:32:34;13.10;99.90
57753;DHT22;43583;53.132;6.574;2023-08-20T03:34:59;13.10;99.90
57753;DHT22;43583;53.132;6.574;2023-08-20T03:37:28;13.10;99.90
57753;DHT22;43583;53.132;6.574;2023-08-20T03:39:54;13.10;99.90
57753;DHT22;43583;53.132;6.574;2023-08-20T03:42:20;13.10;99.90
57753;DHT22;43583;53.132;6.574;2023-08-20T03:44:45;13.00;99.90
57753;DHT22;43583;53.132;6.574;2023-08-20T03:47:11;13.00;99.90
57753;DHT22;43583;53.132;6.574;2023-08-20T03:49:37;13.00;99.90
57753;DHT22;43583;53.132;6.574;2023-08-20T03:52:03;13.00;99.90
57753;DHT22;43583;53.132;6.574;2023-08-20T03:54:29;13.00;99.90
57753;DHT22;43583;53.132;6.574;2023-08-20T03:56:55;13.00;99.90
57753;DHT22;43583;53.132;6.574;2023-08-20T03:59:21;13.00;99.90
57753;DHT22;43583;53.132;6.574;2023-08-20T04:01:47;13.00;99.90
57753;DHT22;43583;53.132;6.574;2023-08-20T04:04:12;13.00;99.90
57753;DHT22;43583;53.132;6.574;2023-08-20T04:06:38;13.00;99.90
57753;DHT22;43583;53.132;6.574;2023-08-20T04:09:04;13.00;99.90
57753;DHT22;43583;53.132;6.574;2023-08-20T04:11:30;12.90;99.90
57753;DHT22;43583;53.132;6.574;2023-08-20T04:13:56;12.90;99.90
57753;DHT22;43583;53.132;6.574;2023-08-20T04:16:21;12.90;99.90
57753;DHT22;43583;53.132;6.574;2023-08-20T04:18:47;12.90;99.90
57753;DHT22;43583;53.132;6.574;2023-08-20T04:21:13;12.90;99.90
57753;DHT22;43583;53.132;6.574;2023-08-20T04:23:39;12.90;99.90
57753;DHT22;43583;53.132;6.574;2023-08-20T04:26:05;12.90;99.90
57753;DHT22;43583;53.132;6.574;2023-08-20T04:28:30;12.90;99.90
57753;DHT22;43583;53.132;6.574;2023-08-20T04:30:56;12.90;99.90
57753;DHT22;43583;53.132;6.574;2023-08-20T04:33:23;12.90;99.90
57753;DHT22;43583;53.132;6.574;2023-08-20T04:35:49;13.00;99.90
57753;DHT22;43583;53.132;6.574;2023-08-20T04:38:17;13.00;99.90
57753;DHT22;43583;53.132;6.574;2023-08-20T04:40:46;13.00;99.90
57753;DHT22;43583;53.132;6.574;2023-08-20T04:43:12;13.00;99.90
57753;DHT22;43583;53.132;6.574;2023-08-20T04:45:38;13.10;99.90
57753;DHT22;43583;53.132;6.574;2023-08-20T04:48:04;13.10;99.90
57753;DHT22;43583;53.132;6.574;2023-08-20T04:50:30;13.20;99.90
57753;DHT22;43583;53.132;6.574;2023-08-20T04:52:55;13.20;99.90
57753;DHT22;43583;53.132;6.574;2023-08-20T04:55:21;13.20;99.90
57753;DHT22;43583;53.132;6.574;2023-08-20T04:57:47;13.30;99.90
57753;DHT22;43583;53.132;6.574;2023-08-20T05:00:12;13.40;99.90
57753;DHT22;43583;53.132;6.574;2023-08-20T05:02:38;13.40;99.90
57753;DHT22;43583;53.132;6.574;2023-08-20T05:05:04;13.60;99.90
57753;DHT22;43583;53.132;6.574;2023-08-20T05:07:30;13.80;99.90
57753;DHT22;43583;53.132;6.574;2023-08-20T05:09:55;14.10;99.90
57753;DHT22;43583;53.132;6.574;2023-08-20T05:12:24;14.30;99.90
57753;DHT22;43583;53.132;6.574;2023-08-20T05:14:49;14.50;99.90
57753;DHT22;43583;53.132;6.574;2023-08-20T05:17:15;14.60;99.90
57753;DHT22;43583;53.132;6.574;2023-08-20T05:19:40;14.90;99.90
57753;DHT22;43583;53.132;6.574;2023-08-20T05:22:06;15.10;99.90
57753;DHT22;43583;53.132;6.574;2023-08-20T05:24:32;15.30;99.90
57753;DHT22;43583;53.132;6.574;2023-08-20T05:27:08;15.40;99.90
57753;DHT22;43583;53.132;6.574;2023-08-20T05:29:34;15.70;99.90
57753;DHT22;43583;53.132;6.574;2023-08-20T05:32:00;16.40;99.90
57753;DHT22;43583;53.132;6.574;2023-08-20T05:34:25;17.50;99.90
57753;DHT22;43583;53.132;6.574;2023-08-20T05:36:51;18.60;99.90
57753;DHT22;43583;53.132;6.574;2023-08-20T05:39:16;19.60;99.90
57753;DHT22;43583;53.132;6.574;2023-08-20T05:41:42;20.60;99.90
57753;DHT22;43583;53.132;6.574;2023-08-20T05:44:09;21.50;99.90
57753;DHT22;43583;53.132;6.574;2023-08-20T05:46:35;22.30;99.90
57753;DHT22;43583;53.132;6.574;2023-08-20T05:49:00;23.10;99.90
57753;DHT22;43583;53.132;6.574;2023-08-20T05:51:26;23.70;99.90
57753;DHT22;43583;53.132;6.574;2023-08-20T05:53:51;24.40;99.90
57753;DHT22;43583;53.132;6.574;2023-08-20T05:56:17;25.00;99.90
57753;DHT22;43583;53.132;6.574;2023-08-20T05:58:43;25.50;99.90
57753;DHT22;43583;53.132;6.574;2023-08-20T06:01:08;26.00;99.90
57753;DHT22;43583;53.132;6.574;2023-08-20T06:03:34;26.30;99.90
57753;DHT22;43583;53.132;6.574;2023-08-20T06:06:00;26.70;99.90
57753;DHT22;43583;53.132;6.574;2023-08-20T06:08:25;27.10;99.90
57753;DHT22;43583;53.132;6.574;2023-08-20T06:10:51;27.50;99.90
57753;DHT22;43583;53.132;6.574;2023-08-20T06:13:17;28.00;99.90
57753;DHT22;43583;53.132;6.574;2023-08-20T06:15:43;28.40;99.90
57753;DHT22;43583;53.132;6.574;2023-08-20T06:18:08;28.80;99.90
57753;DHT22;43583;53.132;6.574;2023-08-20T06:20:34;29.00;99.90
57753;DHT22;43583;53.132;6.574;2023-08-20T06:23:00;29.20;99.90
57753;DHT22;43583;53.132;6.574;2023-08-20T06:25:25;29.50;99.90
57753;DHT22;43583;53.132;6.574;2023-08-20T06:27:51;29.80;99.90
57753;DHT22;43583;53.132;6.574;2023-08-20T06:30:16;29.90;99.90
57753;DHT22;43583;53.132;6.574;2023-08-20T06:32:44;30.20;99.40
57753;DHT22;43583;53.132;6.574;2023-08-20T06:35:10;30.50;98.50
57753;DHT22;43583;53.132;6.574;2023-08-20T06:37:38;30.70;97.80
57753;DHT22;43583;53.132;6.574;2023-08-20T06:40:04;30.90;97.00
57753;DHT22;43583;53.132;6.574;2023-08-20T06:42:29;31.00;96.10
57753;DHT22;43583;53.132;6.574;2023-08-20T06:44:55;31.10;95.70
57753;DHT22;43583;53.132;6.574;2023-08-20T06:47:21;31.20;95.70
57753;DHT22;43583;53.132;6.574;2023-08-20T06:49:46;31.40;94.70
57753;DHT22;43583;53.132;6.574;2023-08-20T06:52:12;31.50;94.10
57753;DHT22;43583;53.132;6.574;2023-08-20T06:54:37;31.70;94.20
57753;DHT22;43583;53.132;6.574;2023-08-20T06:57:03;31.80;93.70
57753;DHT22;43583;53.132;6.574;2023-08-20T06:59:29;32.10;92.90
57753;DHT22;43583;53.132;6.574;2023-08-20T07:01:55;32.20;92.60
57753;DHT22;43583;53.132;6.574;2023-08-20T07:04:21;32.30;91.80
57753;DHT22;43583;53.132;6.574;2023-08-20T07:06:47;32.60;91.40
57753;DHT22;43583;53.132;6.574;2023-08-20T07:09:13;32.70;90.80
57753;DHT22;43583;53.132;6.574;2023-08-20T07:11:38;32.80;90.10
57753;DHT22;43583;53.132;6.574;2023-08-20T07:14:04;32.90;90.20
57753;DHT22;43583;53.132;6.574;2023-08-20T07:16:30;33.10;90.30
57753;DHT22;43583;53.132;6.574;2023-08-20T07:18:56;33.40;89.90
57753;DHT22;43583;53.132;6.574;2023-08-20T07:21:22;33.60;87.80
57753;DHT22;43583;53.132;6.574;2023-08-20T07:23:47;33.80;86.20
57753;DHT22;43583;53.132;6.574;2023-08-20T07:26:13;34.00;86.40
57753;DHT22;43583;53.132;6.574;2023-08-20T07:28:39;34.20;85.00
57753;DHT22;43583;53.132;6.574;2023-08-20T07:31:26;34.30;83.80
57753;DHT22;43583;53.132;6.574;2023-08-20T07:33:53;34.50;82.90
57753;DHT22;43583;53.132;6.574;2023-08-20T07:36:20;34.70;81.10
57753;DHT22;43583;53.132;6.574;2023-08-20T07:38:50;34.70;80.00
57753;DHT22;43583;53.132;6.574;2023-08-20T07:41:16;34.70;79.50
57753;DHT22;43583;53.132;6.574;2023-08-20T07:43:42;34.80;79.70
57753;DHT22;43583;53.132;6.574;2023-08-20T07:46:08;34.90;77.40
57753;DHT22;43583;53.132;6.574;2023-08-20T07:48:35;35.10;77.30
57753;DHT22;43583;53.132;6.574;2023-08-20T07:51:01;35.10;78.10
57753;DHT22;43583;53.132;6.574;2023-08-20T07:53:28;35.20;77.20
57753;DHT22;43583;53.132;6.574;2023-08-20T07:55:54;35.20;77.90
57753;DHT22;43583;53.132;6.574;2023-08-20T07:58:20;35.20;76.70
57753;DHT22;43583;53.132;6.574;2023-08-20T08:00:45;35.50;76.50
57753;DHT22;43583;53.132;6.574;2023-08-20T08:03:11;35.60;76.10
57753;DHT22;43583;53.132;6.574;2023-08-20T08:05:46;35.70;75.80
57753;DHT22;43583;53.132;6.574;2023-08-20T08:08:11;35.50;75.40
57753;DHT22;43583;53.132;6.574;2023-08-20T08:10:37;35.40;75.20
57753;DHT22;43583;53.132;6.574;2023-08-20T08:13:03;35.40;75.00
57753;DHT22;43583;53.132;6.574;2023-08-20T08:15:32;35.50;73.80
57753;DHT22;43583;53.132;6.574;2023-08-20T08:17:57;35.50;74.30
57753;DHT22;43583;53.132;6.574;2023-08-20T08:20:23;35.60;74.80
57753;DHT22;43583;53.132;6.574;2023-08-20T08:22:49;35.60;73.90
57753;DHT22;43583;53.132;6.574;2023-08-20T08:25:14;35.50;74.20
57753;DHT22;43583;53.132;6.574;2023-08-20T08:27:40;35.70;73.00
57753;DHT22;43583;53.132;6.574;2023-08-20T08:30:06;35.70;73.20
57753;DHT22;43583;53.132;6.574;2023-08-20T08:32:32;35.70;73.00
57753;DHT22;43583;53.132;6.574;2023-08-20T08:34:58;35.70;72.70
57753;DHT22;43583;53.132;6.574;2023-08-20T08:37:23;35.70;71.90
57753;DHT22;43583;53.132;6.574;2023-08-20T08:39:49;35.90;72.10
57753;DHT22;43583;53.132;6.574;2023-08-20T08:42:15;35.80;71.90
57753;DHT22;43583;53.132;6.574;2023-08-20T08:44:41;35.90;71.30
57753;DHT22;43583;53.132;6.574;2023-08-20T08:47:08;35.90;71.20
57753;DHT22;43583;53.132;6.574;2023-08-20T08:49:34;35.90;70.70
57753;DHT22;43583;53.132;6.574;2023-08-20T08:52:01;36.10;71.70
57753;DHT22;43583;53.132;6.574;2023-08-20T08:54:29;36.10;70.00
57753;DHT22;43583;53.132;6.574;2023-08-20T08:56:55;36.10;69.60
57753;DHT22;43583;53.132;6.574;2023-08-20T08:59:21;36.00;67.80
57753;DHT22;43583;53.132;6.574;2023-08-20T09:01:47;35.90;67.50
57753;DHT22;43583;53.132;6.574;2023-08-20T09:04:13;35.70;68.20
57753;DHT22;43583;53.132;6.574;2023-08-20T09:06:50;35.70;69.00
57753;DHT22;43583;53.132;6.574;2023-08-20T09:09:20;35.70;69.90
57753;DHT22;43583;53.132;6.574;2023-08-20T09:11:47;35.70;68.80
57753;DHT22;43583;53.132;6.574;2023-08-20T09:14:24;35.40;68.90
57753;DHT22;43583;53.132;6.574;2023-08-20T09:16:58;35.20;68.70
57753;DHT22;43583;53.132;6.574;2023-08-20T09:19:24;34.90;68.50
57753;DHT22;43583;53.132;6.574;2023-08-20T09:21:49;34.40;68.70
57753;DHT22;43583;53.132;6.574;2023-08-20T09:24:25;34.10;69.40
57753;DHT22;43583;53.132;6.574;2023-08-20T09:26:57;33.80;69.80
57753;DHT22;43583;53.132;6.574;2023-08-20T09:29:24;33.70;71.90
57753;DHT22;43583;53.132;6.574;2023-08-20T09:31:50;33.40;71.30
57753;DHT22;43583;53.132;6.574;2023-08-20T09:34:25;33.10;72.00
57753;DHT22;43583;53.132;6.574;2023-08-20T09:36:51;32.70;73.40
57753;DHT22;43583;53.132;6.574;2023-08-20T09:39:17;32.20;72.40
57753;DHT22;43583;53.132;6.574;2023-08-20T09:41:44;31.50;73.10
57753;DHT22;43583;53.132;6.574;2023-08-20T09:44:14;30.90;74.80
57753;DHT22;43583;53.132;6.574;2023-08-20T09:46:42;30.30;76.60
57753;DHT22;43583;53.132;6.574;2023-08-20T09:49:10;29.90;78.60
57753;DHT22;43583;53.132;6.574;2023-08-20T09:51:37;29.60;82.10
57753;DHT22;43583;53.132;6.574;2023-08-20T09:54:15;29.30;84.20
57753;DHT22;43583;53.132;6.574;2023-08-20T09:56:48;29.20;84.50
57753;DHT22;43583;53.132;6.574;2023-08-20T09:59:16;29.00;86.20
57753;DHT22;43583;53.132;6.574;2023-08-20T10:01:43;28.80;87.70
57753;DHT22;43583;53.132;6.574;2023-08-20T10:04:10;28.70;88.70
57753;DHT22;43583;53.132;6.574;2023-08-20T10:06:35;28.70;90.10
57753;DHT22;43583;53.132;6.574;2023-08-20T10:09:02;28.60;90.30
57753;DHT22;43583;53.132;6.574;2023-08-20T10:11:28;28.50;90.70
57753;DHT22;43583;53.132;6.574;2023-08-20T10:13:54;28.40;90.50
57753;DHT22;43583;53.132;6.574;2023-08-20T10:16:21;28.40;91.00
57753;DHT22;43583;53.132;6.574;2023-08-20T10:18:48;28.40;91.70
57753;DHT22;43583;53.132;6.574;2023-08-20T10:21:14;28.30;91.30
57753;DHT22;43583;53.132;6.574;2023-08-20T10:23:48;28.30;92.50
57753;DHT22;43583;53.132;6.574;2023-08-20T10:26:48;28.40;92.10
57753;DHT22;43583;53.132;6.574;2023-08-20T10:29:50;28.30;91.50
57753;DHT22;43583;53.132;6.574;2023-08-20T10:32:58;28.10;91.60
57753;DHT22;43583;53.132;6.574;2023-08-20T10:35:50;28.10;92.50
57753;DHT22;43583;53.132;6.574;2023-08-20T10:44:59;28.00;92.80
57753;DHT22;43583;53.132;6.574;2023-08-20T10:47:25;28.10;93.40
57753;DHT22;43583;53.132;6.574;2023-08-20T10:49:53;28.10;92.50
57753;DHT22;43583;53.132;6.574;2023-08-20T10:52:23;28.10;93.00
57753;DHT22;43583;53.132;6.574;2023-08-20T10:54:50;28.20;93.40
57753;DHT22;43583;53.132;6.574;2023-08-20T10:57:16;28.20;93.30
57753;DHT22;43583;53.132;6.574;2023-08-20T10:59:42;28.20;93.00
57753;DHT22;43583;53.132;6.574;2023-08-20T11:02:12;28.20;92.50
57753;DHT22;43583;53.132;6.574;2023-08-20T11:04:40;28.30;92.30
57753;DHT22;43583;53.132;6.574;2023-08-20T11:07:06;28.20;91.90
57753;DHT22;43583;53.132;6.574;2023-08-20T11:09:33;28.20;91.90
57753;DHT22;43583;53.132;6.574;2023-08-20T11:11:59;28.30;91.70
57753;DHT22;43583;53.132;6.574;2023-08-20T11:14:24;28.20;92.00
57753;DHT22;43583;53.132;6.574;2023-08-20T11:16:50;28.30;92.40
57753;DHT22;43583;53.132;6.574;2023-08-20T11:19:21;28.20;91.90
57753;DHT22;43583;53.132;6.574;2023-08-20T11:21:48;28.20;91.80
57753;DHT22;43583;53.132;6.574;2023-08-20T11:24:14;28.10;91.60
57753;DHT22;43583;53.132;6.574;2023-08-20T11:26:41;28.10;92.00
57753;DHT22;43583;53.132;6.574;2023-08-20T11:29:11;28.00;91.70
57753;DHT22;43583;53.132;6.574;2023-08-20T11:31:42;28.10;91.40
57753;DHT22;43583;53.132;6.574;2023-08-20T11:34:08;28.00;91.90
57753;DHT22;43583;53.132;6.574;2023-08-20T11:36:35;28.00;92.60
57753;DHT22;43583;53.132;6.574;2023-08-20T11:39:01;28.00;93.00
57753;DHT22;43583;53.132;6.574;2023-08-20T11:41:26;28.20;93.10
57753;DHT22;43583;53.132;6.574;2023-08-20T11:43:53;28.30;93.30
57753;DHT22;43583;53.132;6.574;2023-08-20T11:46:21;28.50;93.20
57753;DHT22;43583;53.132;6.574;2023-08-20T11:49:08;28.60;93.00
57753;DHT22;43583;53.132;6.574;2023-08-20T11:51:45;28.70;91.60
57753;DHT22;43583;53.132;6.574;2023-08-20T11:54:13;28.60;92.00
57753;DHT22;43583;53.132;6.574;2023-08-20T11:57:03;28.40;92.30
57753;DHT22;43583;53.132;6.574;2023-08-20T11:59:29;28.30;90.80
57753;DHT22;43583;53.132;6.574;2023-08-20T12:01:58;27.90;92.30
57753;DHT22;43583;53.132;6.574;2023-08-20T12:04:28;28.00;92.70
57753;DHT22;43583;53.132;6.574;2023-08-20T12:07:04;27.90;92.70
57753;DHT22;43583;53.132;6.574;2023-08-20T12:09:30;27.90;93.20
57753;DHT22;43583;53.132;6.574;2023-08-20T12:11:56;27.60;93.30
57753;DHT22;43583;53.132;6.574;2023-08-20T12:14:23;27.50;93.40
57753;DHT22;43583;53.132;6.574;2023-08-20T12:16:49;27.40;93.60
57753;DHT22;43583;53.132;6.574;2023-08-20T12:19:16;27.40;94.20
57753;DHT22;43583;53.132;6.574;2023-08-20T12:21:42;27.40;94.90
57753;DHT22;43583;53.132;6.574;2023-08-20T12:24:09;27.50;94.80
57753;DHT22;43583;53.132;6.574;2023-08-20T12:26:36;27.70;94.80
57753;DHT22;43583;53.132;6.574;2023-08-20T12:29:02;27.70;94.80
57753;DHT22;43583;53.132;6.574;2023-08-20T12:31:28;27.80;94.70
57753;DHT22;43583;53.132;6.574;2023-08-20T12:33:53;27.80;95.10
57753;DHT22;43583;53.132;6.574;2023-08-20T12:36:19;27.90;95.10
57753;DHT22;43583;53.132;6.574;2023-08-20T12:38:45;27.90;94.10
57753;DHT22;43583;53.132;6.574;2023-08-20T12:41:10;28.00;93.30
57753;DHT22;43583;53.132;6.574;2023-08-20T12:43:36;28.00;93.50
57753;DHT22;43583;53.132;6.574;2023-08-20T12:46:02;28.00;93.70
57753;DHT22;43583;53.132;6.574;2023-08-20T12:48:29;28.10;94.00
57753;DHT22;43583;53.132;6.574;2023-08-20T12:50:55;28.10;93.80
57753;DHT22;43583;53.132;6.574;2023-08-20T12:53:21;28.10;94.00
57753;DHT22;43583;53.132;6.574;2023-08-20T12:55:46;28.10;93.20
57753;DHT22;43583;53.132;6.574;2023-08-20T12:58:12;28.20;93.80
57753;DHT22;43583;53.132;6.574;2023-08-20T13:00:38;28.20;92.90
57753;DHT22;43583;53.132;6.574;2023-08-20T13:03:04;28.10;92.90
57753;DHT22;43583;53.132;6.574;2023-08-20T13:05:30;27.70;93.40
57753;DHT22;43583;53.132;6.574;2023-08-20T13:07:56;27.40;93.50
57753;DHT22;43583;53.132;6.574;2023-08-20T13:10:22;27.10;93.40
57753;DHT22;43583;53.132;6.574;2023-08-20T13:12:51;27.00;93.80
57753;DHT22;43583;53.132;6.574;2023-08-20T13:15:20;27.20;94.00
57753;DHT22;43583;53.132;6.574;2023-08-20T13:17:47;27.30;94.40
57753;DHT22;43583;53.132;6.574;2023-08-20T13:20:13;27.40;94.40
57753;DHT22;43583;53.132;6.574;2023-08-20T13:22:40;27.40;94.40
57753;DHT22;43583;53.132;6.574;2023-08-20T13:25:06;27.50;94.50
57753;DHT22;43583;53.132;6.574;2023-08-20T13:27:32;27.50;93.90
57753;DHT22;43583;53.132;6.574;2023-08-20T13:29:57;27.60;94.30
57753;DHT22;43583;53.132;6.574;2023-08-20T13:32:23;27.60;94.20
57753;DHT22;43583;53.132;6.574;2023-08-20T13:34:49;27.60;93.80
57753;DHT22;43583;53.132;6.574;2023-08-20T13:37:15;27.60;94.00
57753;DHT22;43583;53.132;6.574;2023-08-20T13:39:41;27.60;94.10
57753;DHT22;43583;53.132;6.574;2023-08-20T13:42:06;27.40;93.20
57753;DHT22;43583;53.132;6.574;2023-08-20T13:44:32;27.10;93.30
57753;DHT22;43583;53.132;6.574;2023-08-20T13:46:58;26.90;93.20
57753;DHT22;43583;53.132;6.574;2023-08-20T13:49:24;26.70;93.20
57753;DHT22;43583;53.132;6.574;2023-08-20T13:51:50;26.60;93.80
57753;DHT22;43583;53.132;6.574;2023-08-20T13:54:16;26.50;94.10
57753;DHT22;43583;53.132;6.574;2023-08-20T13:56:41;26.30;94.40
57753;DHT22;43583;53.132;6.574;2023-08-20T13:59:09;26.20;95.20
57753;DHT22;43583;53.132;6.574;2023-08-20T14:01:35;26.20;95.20
57753;DHT22;43583;53.132;6.574;2023-08-20T14:04:01;26.20;95.70
57753;DHT22;43583;53.132;6.574;2023-08-20T14:06:27;26.30;96.10
57753;DHT22;43583;53.132;6.574;2023-08-20T14:08:53;26.40;95.90
57753;DHT22;43583;53.132;6.574;2023-08-20T14:11:18;26.50;96.00
57753;DHT22;43583;53.132;6.574;2023-08-20T14:13:44;26.50;95.70
57753;DHT22;43583;53.132;6.574;2023-08-20T14:16:10;26.50;95.80
57753;DHT22;43583;53.132;6.574;2023-08-20T14:18:36;26.50;95.50
57753;DHT22;43583;53.132;6.574;2023-08-20T14:21:01;26.40;95.00
57753;DHT22;43583;53.132;6.574;2023-08-20T14:23:28;26.20;94.60
57753;DHT22;43583;53.132;6.574;2023-08-20T14:25:55;26.00;94.90
57753;DHT22;43583;53.132;6.574;2023-08-20T14:28:21;26.00;95.50
57753;DHT22;43583;53.132;6.574;2023-08-20T14:30:47;26.10;95.10
57753;DHT22;43583;53.132;6.574;2023-08-20T14:33:14;26.20;95.20
57753;DHT22;43583;53.132;6.574;2023-08-20T14:35:40;26.40;95.50
57753;DHT22;43583;53.132;6.574;2023-08-20T14:38:06;26.50;95.30
57753;DHT22;43583;53.132;6.574;2023-08-20T14:40:37;26.60;95.10
57753;DHT22;43583;53.132;6.574;2023-08-20T14:43:04;26.60;94.90
57753;DHT22;43583;53.132;6.574;2023-08-20T14:45:30;26.50;94.40
57753;DHT22;43583;53.132;6.574;2023-08-20T14:47:55;26.30;94.90
57753;DHT22;43583;53.132;6.574;2023-08-20T14:50:21;26.10;95.40
57753;DHT22;43583;53.132;6.574;2023-08-20T14:52:47;25.90;95.90
57753;DHT22;43583;53.132;6.574;2023-08-20T14:55:17;25.70;96.10
57753;DHT22;43583;53.132;6.574;2023-08-20T14:57:43;25.60;96.40
57753;DHT22;43583;53.132;6.574;2023-08-20T15:00:09;25.60;96.30
57753;DHT22;43583;53.132;6.574;2023-08-20T15:02:42;25.70;96.30
57753;DHT22;43583;53.132;6.574;2023-08-20T15:05:09;25.70;95.50
57753;DHT22;43583;53.132;6.574;2023-08-20T15:07:35;25.60;95.20
57753;DHT22;43583;53.132;6.574;2023-08-20T15:10:01;25.50;95.60
57753;DHT22;43583;53.132;6.574;2023-08-20T15:12:26;25.50;95.70
57753;DHT22;43583;53.132;6.574;2023-08-20T15:14:52;25.60;95.90
57753;DHT22;43583;53.132;6.574;2023-08-20T15:17:18;25.60;95.20
57753;DHT22;43583;53.132;6.574;2023-08-20T15:19:43;25.70;95.30
57753;DHT22;43583;53.132;6.574;2023-08-20T15:22:09;25.70;95.30
57753;DHT22;43583;53.132;6.574;2023-08-20T15:24:35;25.70;94.90
57753;DHT22;43583;53.132;6.574;2023-08-20T15:27:00;25.70;94.40
57753;DHT22;43583;53.132;6.574;2023-08-20T15:29:26;25.70;94.60
57753;DHT22;43583;53.132;6.574;2023-08-20T15:31:51;25.70;94.90
57753;DHT22;43583;53.132;6.574;2023-08-20T15:34:20;25.70;94.80
57753;DHT22;43583;53.132;6.574;2023-08-20T15:36:46;25.60;94.50
57753;DHT22;43583;53.132;6.574;2023-08-20T15:39:12;25.40;94.60
57753;DHT22;43583;53.132;6.574;2023-08-20T15:41:38;25.20;94.50
57753;DHT22;43583;53.132;6.574;2023-08-20T15:44:04;25.20;94.50